createdAt,value
2023-01-21T00:04:08.304Z,0.70
2023-01-21T00:09:12.543Z,0.70
2023-01-21T00:14:15.131Z,0.70
2023-01-21T00:19:17.917Z,0.70
2023-01-21T00:24:22.774Z,0.70
2023-01-21T00:29:26.481Z,0.70
2023-01-21T00:34:29.038Z,0.70
2023-01-21T00:39:31.730Z,0.60
2023-01-21T00:44:35.057Z,0.60
2023-01-21T00:49:37.511Z,0.60
2023-01-21T00:54:40.111Z,0.60
2023-01-21T00:59:42.851Z,0.50
2023-01-21T01:04:45.362Z,0.50
2023-01-21T01:09:47.955Z,0.40
2023-01-21T01:14:50.417Z,0.40
2023-01-21T01:19:53.025Z,0.30
2023-01-21T01:24:55.561Z,0.40
2023-01-21T01:29:58.585Z,0.30
2023-01-21T01:35:01.082Z,0.30
2023-01-21T01:40:03.942Z,0.30
2023-01-21T01:45:17.213Z,0.30
2023-01-21T01:50:20.541Z,0.30
2023-01-21T01:55:23.642Z,0.30
2023-01-21T02:00:26.868Z,0.30
2023-01-21T02:05:29.891Z,0.30
2023-01-21T02:10:34.482Z,0.40
2023-01-21T02:15:46.029Z,0.30
2023-01-21T02:21:26.484Z,0.40
2023-01-21T02:26:34.831Z,0.30
2023-01-21T02:32:22.257Z,0.30
2023-01-21T02:37:46.109Z,0.20
2023-01-21T02:43:12.343Z,0.20
2023-01-21T02:48:21.033Z,0.60
2023-01-21T02:53:28.324Z,0.10
2023-01-21T02:58:36.277Z,0.10
2023-01-21T03:04:00.534Z,0.10
2023-01-21T03:09:08.937Z,0.10
2023-01-21T03:14:39.665Z,0.10
2023-01-21T03:20:03.841Z,0.00
2023-01-21T03:25:09.021Z,0.10
2023-01-21T03:30:20.119Z,0.00
2023-01-21T03:35:41.497Z,0.00
2023-01-21T03:40:58.293Z,0.00
2023-01-21T03:46:14.942Z,0.00
2023-01-21T03:51:21.681Z,0.00
2023-01-21T03:56:25.800Z,0.00
2023-01-21T04:01:28.447Z,0.00
2023-01-21T04:06:31.299Z,-0.10
2023-01-21T04:11:34.442Z,-0.10
2023-01-21T04:16:37.298Z,-0.10
2023-01-21T04:21:39.851Z,-0.10
2023-01-21T04:26:42.368Z,-0.10
2023-01-21T04:31:45.187Z,-0.10
2023-01-21T04:36:47.650Z,-0.20
2023-01-21T04:41:50.157Z,-0.20
2023-01-21T04:46:52.678Z,-0.20
2023-01-21T05:21:16.063Z,-0.30
2023-01-21T05:26:19.485Z,-0.40
2023-01-21T05:31:22.329Z,-0.40
2023-01-21T05:36:26.374Z,-0.50
2023-01-21T05:41:37.611Z,-0.40
2023-01-21T05:46:40.384Z,-0.40
2023-01-21T05:51:43.169Z,-0.40
2023-01-21T05:56:46.053Z,-0.30
2023-01-21T06:01:48.869Z,-0.40
2023-01-21T06:07:07.076Z,-0.30
2023-01-21T06:12:17.180Z,-0.30
2023-01-21T06:17:19.939Z,-0.30
2023-01-21T06:22:22.637Z,-0.30
2023-01-21T06:27:25.389Z,-0.40
2023-01-21T06:32:28.127Z,-0.30
2023-01-21T06:37:30.696Z,-0.30
2023-01-21T06:42:33.603Z,-0.30
2023-01-21T06:47:36.360Z,-0.30
2023-01-21T06:52:42.783Z,-0.30
2023-01-21T06:57:45.569Z,-0.30
2023-01-21T07:02:48.203Z,-0.30
2023-01-21T07:07:56.537Z,-0.30
2023-01-21T07:12:59.424Z,-0.30
2023-01-21T07:18:02.247Z,-0.20
2023-01-21T07:23:05.014Z,-0.30
2023-01-21T07:28:07.582Z,-0.20
2023-01-21T07:33:11.897Z,-0.20
2023-01-21T07:38:14.620Z,-0.20
2023-01-21T07:43:17.971Z,-0.20
2023-01-21T07:48:21.343Z,-0.10
2023-01-21T07:53:24.179Z,-0.20
2023-01-21T07:58:26.846Z,-0.10
2023-01-21T08:03:29.655Z,-0.10
2023-01-21T08:08:37.730Z,0.00
2023-01-21T08:13:40.825Z,-0.10
2023-01-21T08:18:43.372Z,0.00
2023-01-21T08:23:46.347Z,-0.10
2023-01-21T08:28:49.035Z,0.00
2023-01-21T08:33:52.292Z,0.00
2023-01-21T08:39:11.313Z,0.00
2023-01-21T08:59:28.542Z,0.00
2023-01-21T09:04:31.485Z,0.10
2023-01-21T20:34:24.856Z,1.20
2023-01-21T20:39:27.579Z,1.10
2023-01-21T20:44:30.171Z,1.10
2023-01-21T20:49:32.693Z,1.10
2023-01-21T20:54:35.288Z,1.10
2023-01-21T20:59:39.002Z,1.20
2023-01-21T21:04:42.010Z,1.10
2023-01-21T21:09:44.671Z,1.10
2023-01-21T21:14:47.433Z,1.30
2023-01-21T21:19:49.918Z,1.10
2023-01-21T21:24:53.015Z,1.10
2023-01-21T21:29:59.257Z,1.10
2023-01-21T21:35:01.812Z,1.10
2023-01-21T21:40:04.855Z,1.10
2023-01-21T21:45:07.961Z,1.00
2023-01-21T21:50:10.724Z,1.10
2023-01-21T21:55:15.602Z,1.20
2023-01-21T22:06:04.056Z,1.30
2023-01-21T22:11:09.724Z,1.10
2023-01-21T22:16:15.000Z,1.10
2023-01-21T22:21:20.356Z,1.20
2023-01-21T22:26:25.610Z,1.20
2023-01-21T22:31:30.550Z,1.10
2023-01-21T22:36:33.296Z,1.10
2023-01-21T22:41:36.053Z,1.20
2023-01-21T22:46:38.559Z,1.20
2023-01-21T22:51:41.206Z,1.40
2023-01-21T22:56:52.552Z,1.20
2023-01-21T23:01:55.707Z,1.20
2023-01-21T23:06:58.240Z,1.20
2023-01-21T23:12:00.803Z,1.20
2023-01-21T23:17:03.721Z,1.20
2023-01-21T23:22:08.489Z,1.20
2023-01-21T23:27:11.255Z,1.20
2023-01-21T23:32:13.752Z,1.20
2023-01-21T23:37:16.307Z,1.20
2023-01-21T23:42:19.444Z,1.30
2023-01-21T23:47:21.954Z,1.20
2023-01-21T23:52:24.911Z,1.20
2023-01-21T23:57:27.471Z,1.20
